Marham, RAF Marham (EGYM)

NameRAF Marham
CityMarham
CountryUnited Kingdom
ICAOEGYM
IATAKNF
Altitude23 m
CoordinatesGoogle Map
Live Air TrafficLiveATC.net
METAREGYM 172150Z 16010KT CAVOK 10/09 Q1002 BLU
2019-10-17 21:50:00 Wind: South-Southeast (160°) 5.14 m/s - Visibility: > 10000 m - Weather: CAVOK - Temperature: 10 °C - Dew point: 9 °C - Humidity: 93.6% - Pressure: 1002 hPa
Statistics

The table below shows the detailed information of all flights to/from Marham, RAF Marham (EGYM).